createdAt,value
2022-10-19T00:04:53.749Z,1029.03
2022-10-19T00:09:46.386Z,1029.06
2022-10-19T00:14:38.852Z,1029.08
2022-10-19T00:19:31.500Z,1029.09
2022-10-19T00:24:24.285Z,1029.14
2022-10-19T00:29:16.793Z,1029.09
2022-10-19T00:34:09.405Z,1029.1
2022-10-19T00:38:56.358Z,1029.08
2022-10-19T00:43:51.933Z,1029.03
2022-10-19T00:48:45.017Z,1028.92
2022-10-19T00:53:39.558Z,1028.88
2022-10-19T00:58:31.922Z,1028.85
2022-10-19T01:03:24.736Z,1028.81
2022-10-19T01:08:17.380Z,1028.75
2022-10-19T01:13:10.264Z,1028.79
2022-10-19T01:18:02.987Z,1028.74
2022-10-19T01:22:55.749Z,1028.79
2022-10-19T01:27:50.171Z,1028.83
2022-10-19T01:32:42.422Z,1028.85
2022-10-19T01:37:35.571Z,1028.78
2022-10-19T01:42:28.315Z,1028.8
2022-10-19T01:47:21.015Z,1028.7
2022-10-19T01:52:13.709Z,1028.77
2022-10-19T01:57:06.749Z,1028.76
2022-10-19T02:01:59.422Z,1028.7
2022-10-19T02:06:51.958Z,1028.63
2022-10-19T02:11:46.437Z,1028.68
2022-10-19T02:16:39.517Z,1028.68
2022-10-19T02:21:31.839Z,1028.73
2022-10-19T02:26:18.622Z,1028.79
2022-10-19T02:31:12.263Z,1028.69
2022-10-19T02:36:05.882Z,1028.62
2022-10-19T02:40:58.551Z,1028.55
2022-10-19T02:45:51.296Z,1028.53
2022-10-19T02:50:44.166Z,1028.53
2022-10-19T02:55:36.614Z,1028.53
2022-10-19T03:00:28.991Z,1028.54
2022-10-19T03:05:21.506Z,1028.56
2022-10-19T03:10:14.250Z,1028.51
2022-10-19T03:15:06.903Z,1028.44
2022-10-19T03:20:01.632Z,1028.46
2022-10-19T03:24:53.841Z,1028.37
2022-10-19T03:29:46.631Z,1028.43
2022-10-19T03:34:39.143Z,1028.56
2022-10-19T03:39:31.587Z,1028.58
2022-10-19T03:44:23.964Z,1028.67
2022-10-19T03:49:16.280Z,1028.66
2022-10-19T03:54:09.016Z,1028.81
2022-10-19T03:59:01.915Z,1028.74
2022-10-19T04:03:54.823Z,1028.73
2022-10-19T04:08:47.609Z,1028.85
2022-10-19T04:13:40.347Z,1028.89
2022-10-19T04:18:33.104Z,1028.82
2022-10-19T04:23:25.715Z,1028.83
2022-10-19T04:28:18.296Z,1028.85
2022-10-19T04:33:10.613Z,1028.93
2022-10-19T04:38:03.060Z,1028.91
2022-10-19T04:42:55.566Z,1028.96
2022-10-19T04:47:48.180Z,1028.98
2022-10-19T04:52:40.843Z,1029.04
2022-10-19T04:57:33.715Z,1029.04
2022-10-19T05:02:25.866Z,1029.08
2022-10-19T05:07:18.720Z,1029.11
2022-10-19T05:12:11.277Z,1029.13
2022-10-19T05:21:56.735Z,1029.12
2022-10-19T05:31:41.916Z,1029.1
2022-10-19T05:41:27.034Z,1029.18
2022-10-19T05:51:12.122Z,1029.2
2022-10-19T05:56:04.460Z,1029.18
2022-10-19T06:00:56.889Z,1029.29
2022-10-19T06:05:49.042Z,1029.38
2022-10-19T06:10:41.695Z,1029.42
2022-10-19T06:15:34.513Z,1029.49
2022-10-19T06:20:27.053Z,1029.52
2022-10-19T06:25:19.580Z,1029.51
2022-10-19T06:30:11.468Z,1029.6
2022-10-19T06:35:04.465Z,1029.56
2022-10-19T06:39:57.031Z,1029.62
2022-10-19T06:44:49.493Z,1029.65
2022-10-19T06:49:42.119Z,1029.62
2022-10-19T06:54:34.710Z,1029.63
2022-10-19T06:59:27.185Z,1029.63
2022-10-19T07:04:19.250Z,1029.61
2022-10-19T07:09:11.993Z,1029.67
2022-10-19T07:14:04.760Z,1029.74
2022-10-19T07:18:57.111Z,1029.81
2022-10-19T07:23:49.453Z,1029.86
2022-10-19T07:28:42.113Z,1029.93
2022-10-19T07:33:34.452Z,1029.86
2022-10-19T07:38:27.081Z,1029.85
2022-10-19T07:43:19.605Z,1029.89
2022-10-19T07:48:12.221Z,1029.91
2022-10-19T07:53:04.732Z,1029.89
2022-10-19T07:57:57.150Z,1029.86
2022-10-19T08:03:00.012Z,1029.92
2022-10-19T08:07:42.235Z,1029.93
2022-10-19T08:12:34.995Z,1029.95
2022-10-19T08:17:27.238Z,1029.95
2022-10-19T08:22:19.496Z,1029.92
2022-10-19T08:27:11.895Z,1029.94
2022-10-19T08:32:04.485Z,1029.95
2022-10-19T08:36:56.985Z,1029.97
2022-10-19T08:41:49.651Z,1029.93
2022-10-19T08:46:42.263Z,1029.89
2022-10-19T08:51:34.513Z,1029.87
2022-10-19T08:56:46.197Z,1029.89
2022-10-19T09:01:19.547Z,1029.93
2022-10-19T09:06:12.123Z,1029.91
2022-10-19T09:11:04.341Z,1029.89
2022-10-19T09:15:56.798Z,1029.94
2022-10-19T09:20:49.560Z,1029.89
2022-10-19T09:25:41.962Z,1029.88
2022-10-19T09:30:34.535Z,1029.84
2022-10-19T09:35:27.034Z,1029.86
2022-10-19T09:40:19.624Z,1029.85
2022-10-19T09:45:12.197Z,1029.89
2022-10-19T09:50:04.781Z,1029.9
2022-10-19T09:54:57.254Z,1029.88
2022-10-19T09:59:49.894Z,1029.92
2022-10-19T10:04:42.292Z,1029.89
2022-10-19T10:09:34.578Z,1029.88
2022-10-19T10:14:26.901Z,1029.85
2022-10-19T10:19:19.367Z,1029.86
2022-10-19T10:24:11.757Z,1029.91
2022-10-19T10:29:04.072Z,1029.89
2022-10-19T10:33:56.485Z,1029.97
2022-10-19T10:38:48.985Z,1029.92
2022-10-19T10:43:41.828Z,1029.9
2022-10-19T10:48:34.240Z,1029.83
2022-10-19T10:53:26.486Z,1029.89
2022-10-19T10:58:19.028Z,1029.86
2022-10-19T11:03:11.399Z,1029.81
2022-10-19T11:08:04.083Z,1029.8
2022-10-19T11:12:56.437Z,1029.74
2022-10-19T11:17:48.830Z,1029.73
2022-10-19T11:22:41.060Z,1029.66
2022-10-19T11:27:33.916Z,1029.5
2022-10-19T11:32:26.035Z,1029.4
2022-10-19T11:37:18.588Z,1029.36
2022-10-19T11:47:03.603Z,1029.31
2022-10-19T11:57:02.793Z,1029.16
2022-10-19T12:06:34.052Z,1029.03
2022-10-19T12:11:26.966Z,1029.07
2022-10-19T12:16:19.565Z,1028.98
2022-10-19T12:21:11.970Z,1028.94
2022-10-19T12:26:04.338Z,1028.94
2022-10-19T12:30:56.768Z,1028.93
2022-10-19T12:35:49.128Z,1028.92
2022-10-19T12:40:35.620Z,1028.87
2022-10-19T12:45:29.306Z,1028.78
2022-10-19T12:50:22.925Z,1028.75
2022-10-19T12:55:15.604Z,1028.77
2022-10-19T13:00:08.130Z,1028.74
2022-10-19T13:05:00.544Z,1028.76
2022-10-19T13:09:53.303Z,1028.81
2022-10-19T13:14:45.438Z,1028.7
2022-10-19T13:19:34.979Z,1028.77
2022-10-19T13:24:28.909Z,1028.74
2022-10-19T13:29:21.435Z,1028.72
2022-10-19T13:34:13.762Z,1028.72
2022-10-19T13:39:06.255Z,1028.78
2022-10-19T13:43:58.941Z,1028.73
2022-10-19T13:48:51.641Z,1028.64
2022-10-19T13:53:44.291Z,1028.56
2022-10-19T13:58:36.980Z,1028.57
2022-10-19T14:03:29.402Z,1028.58
2022-10-19T14:08:21.980Z,1028.55
2022-10-19T14:13:14.807Z,1028.53
2022-10-19T14:18:07.834Z,1028.5
2022-10-19T14:22:59.735Z,1028.48
2022-10-19T14:27:52.260Z,1028.36
2022-10-19T14:32:44.831Z,1028.36
2022-10-19T14:37:37.750Z,1028.28
2022-10-19T14:42:30.260Z,1028.24
2022-10-19T14:47:22.771Z,1028.28
2022-10-19T14:52:15.350Z,1028.31
2022-10-19T14:57:08.183Z,1028.24
2022-10-19T15:02:00.727Z,1028.21
2022-10-19T15:06:55.482Z,1028.21
2022-10-19T15:11:47.715Z,1028.17
2022-10-19T15:16:40.345Z,1028.12
2022-10-19T15:21:33.441Z,1028.11
2022-10-19T15:26:20.005Z,1028.11
2022-10-19T15:31:13.491Z,1028.12
2022-10-19T15:36:09.333Z,1028.12
2022-10-19T15:41:03.470Z,1028.11
2022-10-19T15:45:55.675Z,1028.13
2022-10-19T15:50:42.485Z,1028.15
2022-10-19T15:55:36.002Z,1028.12
2022-10-19T16:00:29.995Z,1028.12
2022-10-19T16:05:22.496Z,1028.1
2022-10-19T16:10:15.180Z,1028.08
2022-10-19T16:15:07.665Z,1028.15
2022-10-19T16:19:54.398Z,1028.14
2022-10-19T16:24:49.892Z,1028.17
2022-10-19T16:29:45.232Z,1028.05
2022-10-19T16:34:37.429Z,1028.15
2022-10-19T16:39:30.167Z,1028.14
2022-10-19T16:44:22.612Z,1028.23
2022-10-19T16:49:17.293Z,1028.27
2022-10-19T16:54:09.865Z,1028.24
2022-10-19T16:59:04.358Z,1028.29
2022-10-19T17:03:56.598Z,1028.24
2022-10-19T17:13:45.343Z,1028.18
2022-10-19T17:18:31.703Z,1028.23
2022-10-19T17:23:25.370Z,1028.18
2022-10-19T17:28:13.444Z,1028.12
2022-10-19T17:33:08.757Z,1028.18
2022-10-19T17:42:54.153Z,1028.12
2022-10-19T17:52:39.467Z,1028.16
2022-10-19T18:02:24.452Z,1028.12
2022-10-19T18:07:16.746Z,1028.12
2022-10-19T18:12:04.816Z,1028.09
2022-10-19T18:16:57.161Z,1028.02
2022-10-19T18:21:50.868Z,1028.01
2022-10-19T18:26:43.417Z,1028.01
2022-10-19T18:31:36.022Z,1028.03
2022-10-19T18:36:28.774Z,1028.03
2022-10-19T18:41:15.440Z,1027.96
2022-10-19T18:46:08.914Z,1027.91
2022-10-19T18:51:03.002Z,1027.9
2022-10-19T18:55:55.606Z,1027.85
2022-10-19T19:00:48.992Z,1027.86
2022-10-19T19:05:40.601Z,1027.86
2022-10-19T19:10:35.475Z,1027.87
2022-10-19T19:15:27.765Z,1027.9
2022-10-19T19:20:14.596Z,1027.87
2022-10-19T19:25:08.256Z,1027.9
2022-10-19T19:30:01.875Z,1027.94
2022-10-19T19:34:55.061Z,1027.91
2022-10-19T19:39:47.385Z,1027.83
2022-10-19T19:44:40.017Z,1027.71
2022-10-19T19:49:32.637Z,1027.68
2022-10-19T19:54:25.429Z,1027.62
2022-10-19T19:59:18.205Z,1027.62
2022-10-19T20:04:10.871Z,1027.6
2022-10-19T20:09:05.746Z,1027.67
2022-10-19T20:13:57.881Z,1027.65
2022-10-19T20:18:52.451Z,1027.63
2022-10-19T20:23:44.813Z,1027.58
2022-10-19T20:28:37.469Z,1027.57
2022-10-19T20:33:30.283Z,1027.54
2022-10-19T20:38:22.656Z,1027.63
2022-10-19T20:43:15.558Z,1027.6
2022-10-19T20:48:08.359Z,1027.62
2022-10-19T20:53:01.007Z,1027.57
2022-10-19T20:57:53.645Z,1027.51
2022-10-19T21:02:47.002Z,1027.37
2022-10-19T21:07:39.751Z,1027.24
2022-10-19T21:12:26.642Z,1027.25
2022-10-19T21:17:20.357Z,1027.25
2022-10-19T21:22:14.240Z,1027.26
2022-10-19T21:27:07.020Z,1027.2
2022-10-19T21:31:59.678Z,1027.22
2022-10-19T21:36:52.449Z,1027.3
2022-10-19T21:41:44.592Z,1027.24
2022-10-19T21:46:37.223Z,1027.23
2022-10-19T21:51:29.683Z,1027.21
2022-10-19T21:56:24.394Z,1027.19
2022-10-19T22:01:16.816Z,1027.12
2022-10-19T22:06:09.515Z,1027.06
2022-10-19T22:11:02.349Z,1027.04
2022-10-19T22:15:49.225Z,1026.95
2022-10-19T22:20:42.460Z,1026.91
2022-10-19T22:25:33.206Z,1026.84
2022-10-19T22:30:26.996Z,1026.78
2022-10-19T22:35:19.364Z,1026.68
2022-10-19T22:40:11.469Z,1026.59
2022-10-19T22:49:52.017Z,1026.43
2022-10-19T22:54:45.684Z,1026.27
2022-10-19T22:59:38.599Z,1026.26
2022-10-19T23:04:31.297Z,1026.24
2022-10-19T23:09:23.566Z,1026.28
2022-10-19T23:19:09.038Z,1026.32
2022-10-19T23:38:35.711Z,1026.21
2022-10-19T23:43:30.339Z,1026.24
2022-10-19T23:48:22.472Z,1026.14
2022-10-19T23:53:14.581Z,1026.11
